This is the latest recevied weather packets stored in our database for station/object DG0PX-12. If no packets are shown the sender has not sent any weather packets the latest 10 day(s).
| Time | Temp. | Humidity | Pressure | Rain* | Wind** | Luminosity | Snow |
|---|---|---|---|---|---|---|---|
| 1787643862 | 22.22° C | 56% | 944.6 hPa | - | - | - | - |
| 1787642962 | 21.67° C | 56% | 944.4 hPa | - | - | - | - |
| 1787642062 | 22.78° C | 54% | 944.2 hPa | - | - | - | - |
| 1787641162 | 22.78° C | 53% | 943.9 hPa | - | - | - | - |
| 1787640262 | 23.33° C | 51% | 943.3 hPa | - | - | - | - |
| 1787639362 | 23.33° C | 51% | 942.7 hPa | - | - | - | - |
| 1787638462 | 22.78° C | 51% | 942.3 hPa | - | - | - | - |
| 1787637562 | 22.22° C | 53% | 942.2 hPa | - | - | - | - |
| 1787636662 | 22.22° C | 52% | 942.2 hPa | - | - | - | - |
| 1787635762 | 22.22° C | 53% | 942.1 hPa | - | - | - | - |
| 1787634861 | 22.22° C | 52% | 942.4 hPa | - | - | - | - |
| 1787633961 | 21.11° C | 56% | 942.3 hPa | - | - | - | - |
| 1787633061 | 20.56° C | 57% | 942.1 hPa | - | - | - | - |
| 1787632161 | 19.44° C | 59% | 942.3 hPa | - | - | - | - |
| 1787631261 | 20.56° C | 56% | 942.3 hPa | - | - | - | - |
| 1787630361 | 20° C | 56% | 942.6 hPa | - | - | - | - |
| 1787629461 | 18.33° C | 65% | 942.4 hPa | - | - | - | - |
| 1787628561 | 19.44° C | 60% | 942.5 hPa | - | - | - | - |
| 1787627661 | 20° C | 56% | 942.5 hPa | - | - | - | - |
| 1787626761 | 20° C | 59% | 942.7 hPa | - | - | - | - |
| 1787625861 | 20.56° C | 57% | 942.9 hPa | - | - | - | - |
| 1787624961 | 19.44° C | 60% | 942.7 hPa | - | - | - | - |
| 1787624061 | 21.67° C | 54% | 943 hPa | - | - | - | - |
| 1787623161 | 20° C | 59% | 943.1 hPa | - | - | - | - |
| 1787622260 | 20.56° C | 59% | 943.2 hPa | - | - | - | - |
* Rain since midnight (hover to see other rain measurements)
** Current wind speed in m/s (hover to see current wind gust speed)